createdAt,value
2018-04-16T00:03:14.396Z,4.70
2018-04-16T00:08:08.904Z,4.60
2018-04-16T00:13:03.261Z,4.77
2018-04-16T00:17:58.394Z,5.17
2018-04-16T00:22:52.529Z,5.00
2018-04-16T00:27:46.678Z,4.57
2018-04-16T00:32:47.143Z,4.93
2018-04-16T00:37:46.986Z,5.00
2018-04-16T00:42:46.730Z,5.13
2018-04-16T00:47:46.776Z,5.30
2018-04-16T00:52:46.587Z,4.90
2018-04-16T00:57:46.337Z,4.60
2018-04-16T01:02:46.059Z,4.93
2018-04-16T01:07:45.639Z,4.90
2018-04-16T01:12:45.353Z,5.13
2018-04-16T01:17:45.874Z,5.00
2018-04-16T01:22:45.617Z,5.30
2018-04-16T01:27:46.129Z,4.93
2018-04-16T01:32:45.693Z,5.13
2018-04-16T01:37:46.315Z,4.93
2018-04-16T01:42:46.784Z,5.67
2018-04-16T01:47:47.123Z,5.37
2018-04-16T01:52:47.727Z,5.43
2018-04-16T01:57:47.578Z,5.60
2018-04-16T02:18:43.198Z,5.87
2018-04-16T02:23:43.955Z,5.50
2018-04-16T02:28:43.489Z,5.80
2018-04-16T02:33:43.130Z,5.13
2018-04-16T02:38:43.047Z,5.10
2018-04-16T02:43:42.607Z,5.03
2018-04-16T02:48:42.633Z,4.93
2018-04-16T02:53:43.040Z,5.07
2018-04-16T03:14:37.973Z,5.53
2018-04-16T03:19:37.649Z,5.70
2018-04-16T03:24:37.997Z,7.70
2018-04-16T03:29:37.722Z,6.40
2018-04-16T03:34:37.455Z,6.07
2018-04-16T03:39:37.007Z,5.30
2018-04-16T03:44:36.977Z,5.70
2018-04-16T03:49:36.658Z,5.03
2018-04-16T03:54:31.133Z,4.80
2018-04-16T03:59:26.325Z,4.53
2018-04-16T04:04:20.694Z,5.10
2018-04-16T04:09:15.047Z,5.03
2018-04-16T04:14:10.185Z,4.50
2018-04-16T04:19:05.304Z,4.77
2018-04-16T04:24:17.592Z,5.33
2018-04-16T04:34:43.645Z,5.23
2018-04-16T04:39:38.008Z,5.37
2018-04-16T04:44:33.153Z,4.93
2018-04-16T04:49:28.640Z,5.10
2018-04-16T04:54:22.994Z,5.27
2018-04-16T04:59:17.638Z,5.13
2018-04-16T05:04:12.211Z,4.97
2018-04-16T05:09:06.074Z,4.93
2018-04-16T05:14:00.568Z,4.73
2018-04-16T05:18:55.695Z,5.37
2018-04-16T05:23:50.063Z,5.37
2018-04-16T05:28:44.494Z,5.70
2018-04-16T05:33:39.756Z,5.10
2018-04-16T05:38:33.891Z,5.33
2018-04-16T05:43:28.268Z,5.10
2018-04-16T05:48:22.632Z,5.17
2018-04-16T05:53:17.213Z,5.40
2018-04-16T05:58:12.167Z,5.90
2018-04-16T06:03:06.661Z,5.10
2018-04-16T06:08:01.175Z,5.13
2018-04-16T06:12:56.187Z,4.60
2018-04-16T06:17:51.232Z,4.77
2018-04-16T06:22:45.575Z,4.30
2018-04-16T06:27:39.942Z,5.00
2018-04-16T06:32:34.513Z,4.07
2018-04-16T06:37:28.865Z,4.53
2018-04-16T06:42:23.301Z,4.00
2018-04-16T06:47:17.978Z,4.33
2018-04-16T06:52:12.461Z,4.33
2018-04-16T06:57:07.035Z,4.53
2018-04-16T07:02:02.618Z,4.43
2018-04-16T07:06:57.375Z,4.30
2018-04-16T07:11:52.280Z,4.03
2018-04-16T07:16:47.462Z,4.37
2018-04-16T07:21:41.615Z,3.80
2018-04-16T07:26:36.721Z,3.80
2018-04-16T07:31:31.885Z,3.90
2018-04-16T07:36:26.257Z,4.07
2018-04-16T07:41:21.432Z,5.47
2018-04-16T07:46:16.129Z,3.90
2018-04-16T07:51:10.493Z,4.07
2018-04-16T07:56:05.730Z,4.60
2018-04-16T08:01:00.157Z,4.40
2018-04-16T08:05:54.611Z,3.60
2018-04-16T08:10:49.130Z,3.47
2018-04-16T08:15:45.107Z,4.10
2018-04-16T08:20:39.619Z,3.67
2018-04-16T08:25:34.288Z,3.60
2018-04-16T08:30:29.033Z,3.27
2018-04-16T08:35:23.559Z,3.00
2018-04-16T08:40:18.187Z,3.33
2018-04-16T08:45:12.820Z,3.33
2018-04-16T08:50:07.463Z,3.20
2018-04-16T08:55:02.867Z,3.43
2018-04-16T08:59:57.658Z,3.50
2018-04-16T09:04:52.062Z,3.37
2018-04-16T09:09:46.682Z,3.77
2018-04-16T09:14:41.097Z,4.00
2018-04-16T09:19:35.839Z,3.40
2018-04-16T09:24:30.704Z,3.10
2018-04-16T09:29:25.362Z,3.07
2018-04-16T09:34:20.137Z,2.43
2018-04-16T09:39:14.773Z,2.30
2018-04-16T09:44:10.183Z,2.77
2018-04-16T09:49:05.594Z,2.90
2018-04-16T09:54:00.214Z,2.83
2018-04-16T09:58:54.859Z,2.70
2018-04-16T10:03:49.511Z,3.70
2018-04-16T10:08:44.126Z,4.17
2018-04-16T10:13:39.558Z,4.27
2018-04-16T10:18:34.705Z,4.27
2018-04-16T10:23:29.337Z,4.57
2018-04-16T10:28:23.727Z,3.90
2018-04-16T10:33:18.093Z,3.00
2018-04-16T10:38:13.213Z,3.23
2018-04-16T10:43:08.346Z,2.87
2018-04-16T10:48:02.742Z,3.30
2018-04-16T10:52:57.105Z,2.87
2018-04-16T10:57:53.932Z,3.27
2018-04-16T11:02:48.871Z,3.37
2018-04-16T11:07:43.223Z,3.30
2018-04-16T11:12:37.588Z,3.20
2018-04-16T11:17:31.955Z,2.90
2018-04-16T11:22:26.334Z,2.97
2018-04-16T11:27:20.689Z,2.90
2018-04-16T11:32:16.827Z,3.17
2018-04-16T11:37:12.416Z,3.07
2018-04-16T11:42:12.187Z,3.20
2018-04-16T11:47:13.124Z,3.67
2018-04-16T11:57:17.202Z,3.00
2018-04-16T12:02:14.851Z,3.90
2018-04-16T12:07:16.911Z,3.33
2018-04-16T12:12:17.090Z,2.97
2018-04-16T12:17:15.331Z,3.40
2018-04-16T12:22:11.082Z,2.80
2018-04-16T12:27:07.094Z,2.90
2018-04-16T12:32:07.643Z,2.57
2018-04-16T12:37:13.555Z,2.70
2018-04-16T12:42:26.338Z,3.63
2018-04-16T12:47:27.251Z,3.53
2018-04-16T12:52:28.078Z,3.10
2018-04-16T12:57:42.661Z,3.63
2018-04-16T13:02:40.367Z,3.53
2018-04-16T13:07:46.088Z,3.33
2018-04-16T13:12:45.583Z,3.23
2018-04-16T13:17:49.659Z,3.10
2018-04-16T13:22:51.148Z,3.00
2018-04-16T13:27:52.151Z,2.80
2018-04-16T13:32:49.257Z,3.67
2018-04-16T13:37:48.103Z,3.00
2018-04-16T13:42:43.438Z,2.97
2018-04-16T13:47:38.357Z,2.90
2018-04-16T13:52:32.829Z,2.53
2018-04-16T13:57:27.219Z,2.80
2018-04-16T14:02:21.571Z,2.27
2018-04-16T14:07:15.937Z,2.70
2018-04-16T14:12:10.319Z,2.77
2018-04-16T14:17:05.483Z,3.10
2018-04-16T14:21:59.938Z,2.77
2018-04-16T14:26:55.159Z,3.00
2018-04-16T14:31:50.291Z,2.53
2018-04-16T14:36:44.745Z,2.40
2018-04-16T14:41:39.098Z,2.40
2018-04-16T14:46:33.474Z,2.33
2018-04-16T14:51:27.843Z,2.40
2018-04-16T14:56:22.195Z,2.03
2018-04-16T15:01:17.313Z,1.80
2018-04-16T15:06:12.422Z,1.97
2018-04-16T15:11:06.785Z,1.97
2018-04-16T15:16:01.156Z,2.30
2018-04-16T15:20:56.481Z,2.17
2018-04-16T15:25:50.835Z,2.03
2018-04-16T15:30:45.481Z,2.47
2018-04-16T15:35:40.601Z,2.07
2018-04-16T15:40:35.725Z,1.87
2018-04-16T15:45:30.604Z,2.23
2018-04-16T15:50:24.733Z,1.80
2018-04-16T15:55:20.013Z,2.07
2018-04-16T16:00:14.359Z,2.40
2018-04-16T16:05:09.889Z,2.13
2018-04-16T16:10:03.759Z,2.37
2018-04-16T16:14:58.667Z,2.10
2018-04-16T16:19:53.020Z,2.80
2018-04-16T16:24:47.392Z,2.20
2018-04-16T16:29:42.671Z,2.53
2018-04-16T16:34:37.139Z,2.10
2018-04-16T16:39:31.629Z,2.00
2018-04-16T16:44:25.987Z,2.07
2018-04-16T16:49:20.368Z,2.20
2018-04-16T16:54:14.530Z,2.13
2018-04-16T16:59:09.041Z,1.90
2018-04-16T17:04:03.966Z,2.50
2018-04-16T17:08:58.528Z,2.20
2018-04-16T17:13:52.932Z,2.10
2018-04-16T17:18:47.354Z,2.20
2018-04-16T17:23:42.620Z,2.57
2018-04-16T17:28:37.125Z,2.10
2018-04-16T17:33:31.479Z,2.40
2018-04-16T17:38:25.876Z,2.30
2018-04-16T17:43:20.232Z,2.40
2018-04-16T17:48:14.625Z,2.33
2018-04-16T17:53:09.184Z,1.97
2018-04-16T17:58:04.341Z,2.63
2018-04-16T18:02:58.748Z,2.40
2018-04-16T18:07:53.217Z,2.60
2018-04-16T18:12:47.600Z,2.30
2018-04-16T18:17:42.187Z,2.47
2018-04-16T18:22:36.593Z,2.40
2018-04-16T18:27:30.971Z,2.70
2018-04-16T18:32:25.356Z,2.93
2018-04-16T18:37:20.463Z,2.50
2018-04-16T18:42:14.883Z,2.93
2018-04-16T18:47:10.292Z,2.77
2018-04-16T18:52:04.677Z,2.77
2018-04-16T18:56:59.122Z,3.10
2018-04-16T19:01:53.922Z,3.03
2018-04-16T19:06:48.817Z,3.43
2018-04-16T19:11:43.402Z,2.90
2018-04-16T19:16:37.915Z,2.90
2018-04-16T19:21:37.662Z,2.80
2018-04-16T19:26:32.034Z,2.60
2018-04-16T19:31:26.455Z,2.97
2018-04-16T19:36:20.835Z,3.40
2018-04-16T19:41:16.160Z,3.00
2018-04-16T19:46:10.496Z,3.20
2018-04-16T19:51:04.874Z,3.20
2018-04-16T20:11:47.445Z,3.50
2018-04-16T20:16:41.827Z,3.00
2018-04-16T20:21:36.188Z,2.93
2018-04-16T20:26:30.557Z,2.80
2018-04-16T20:31:25.255Z,3.13
2018-04-16T20:36:19.378Z,3.43
2018-04-16T20:41:14.501Z,3.20
2018-04-16T20:46:08.860Z,3.13
2018-04-16T20:51:03.229Z,3.37
2018-04-16T20:55:57.594Z,3.60
2018-04-16T21:00:52.711Z,3.90
2018-04-16T21:05:47.884Z,4.50
2018-04-16T21:10:42.243Z,3.67
2018-04-16T21:15:37.590Z,3.63
2018-04-16T21:20:32.016Z,3.70
2018-04-16T21:25:26.187Z,3.70
2018-04-16T21:30:20.535Z,4.30
2018-04-16T21:35:14.911Z,3.93
2018-04-16T21:40:09.267Z,4.30
2018-04-16T21:45:03.641Z,4.00
2018-04-16T21:49:58.007Z,4.57
2018-04-16T21:54:52.353Z,4.60
2018-04-16T21:59:46.726Z,4.20
2018-04-16T22:04:41.156Z,4.63
2018-04-16T22:09:35.504Z,3.80
2018-04-16T22:14:30.420Z,4.50
2018-04-16T22:19:24.785Z,4.53
2018-04-16T22:24:19.154Z,4.90
2018-04-16T22:29:13.527Z,4.70
2018-04-16T22:34:08.417Z,5.23
2018-04-16T22:39:03.734Z,4.47
2018-04-16T22:43:58.198Z,4.60
2018-04-16T22:48:52.580Z,4.57
2018-04-16T22:53:46.945Z,4.57
2018-04-16T22:58:41.312Z,4.43
2018-04-16T23:03:35.681Z,4.83
2018-04-16T23:08:30.620Z,4.80
2018-04-16T23:13:24.969Z,4.97
2018-04-16T23:18:19.108Z,4.80
2018-04-16T23:23:13.478Z,5.07
2018-04-16T23:28:07.857Z,4.87
2018-04-16T23:33:02.209Z,4.53
2018-04-16T23:37:56.418Z,5.03
2018-04-16T23:42:51.369Z,5.00
2018-04-16T23:47:45.738Z,5.13
2018-04-16T23:52:40.089Z,4.97
2018-04-16T23:57:34.628Z,5.60
